• Join FlightAware (Why Join?)
  • Login
  • US Flag 
07:43AM EST


 

Airport Tracker/Info


-or-


 

Live Flight TrackerFlight Track Log ✈ CSZ9844 ✈ 02-Aug-2014 ✈ ZJHK / HAK - ZGSZ / SZX

Flight Track Log - Related Links

Times and Time Zones

All times are in EDT time to prevent confusion due to time zone crossing. See the CSZ9844 flight status page for this flight to view local times or setup timezone preferences in your user account.

Time Position Orientation Groundspeed Altitude Reporting Facility
EDT Latitude Longitude Course Direction KTS MPH feet Rate Location/Type
09:29PM 20.3399 110.9484 49° Northeast  Level Estimated
09:30PM 20.3904 111.0098 49° Northeast  Level Estimated
09:31PM 20.4410 111.0712 49° Northeast  Level Estimated
09:32PM 20.4914 111.1327 49° Northeast  Level Estimated
09:33PM 20.5419 111.1941 49° Northeast  Level Estimated
09:34PM 20.5924 111.2557 49° Northeast  Level Estimated
09:35PM 20.6428 111.3172 49° Northeast  Level Estimated
09:36PM 20.6932 111.3788 49° Northeast  Level Estimated
09:37PM 20.7436 111.4405 49° Northeast  Level Estimated
09:38PM 20.7939 111.5022 49° Northeast  Level Estimated
09:39PM 20.8443 111.5639 49° Northeast  Level Estimated
09:40PM 20.8946 111.6257 49° Northeast  Level Estimated
09:41PM 20.9449 111.6875 49° Northeast  Level Estimated
09:42PM 20.9952 111.7493 49° Northeast  Level Estimated
09:43PM 21.0454 111.8112 49° Northeast  Level Estimated
09:44PM 21.0956 111.8732 49° Northeast  Level Estimated
09:45PM 21.1458 111.9352 49° Northeast  Level Estimated
09:46PM 21.1960 111.9972 49° Northeast  Level Estimated
09:47PM 21.2462 112.0592 49° Northeast  Level Estimated
09:48PM 21.2963 112.1213 49° Northeast  Level Estimated
09:49PM 21.3465 112.1835 49° Northeast  Level Estimated
09:50PM 21.3965 112.2457 49° Northeast  Level Estimated
09:51PM 21.4466 112.3079 49° Northeast  Level Estimated
09:52PM 21.4967 112.3702 49° Northeast  Level Estimated
09:53PM 21.5467 112.4325 49° Northeast  Level Estimated
09:54PM 21.5967 112.4949 49° Northeast  Level Estimated
09:55PM 21.6467 112.5573 49° Northeast  Level Estimated
09:56PM 21.6966 112.6197 49° Northeast  Level Estimated
09:57PM 21.7465 112.6822 49° Northeast  Level Estimated
09:58PM 21.7964 112.7448 49° Northeast  Level Estimated
09:59PM 21.8463 112.8073 49° Northeast  Level Estimated
10:00PM 21.8962 112.8699 49° Northeast  Level Estimated
10:01PM 21.9460 112.9326 49° Northeast  Level Estimated
10:02PM 21.9958 112.9953 49° Northeast  Level Estimated
10:03PM 22.0456 113.0581 49° Northeast  Level Estimated
10:04PM 22.0954 113.1209 49° Northeast  Level Estimated
10:05PM 22.1451 113.1837 49° Northeast  Level Estimated
10:06PM 22.1948 113.2466 50° Northeast  Level Estimated
10:07PM 22.2445 113.3095 50° Northeast  Level Estimated
10:08PM 22.2942 113.3725 50° Northeast  Level Estimated
10:09PM 22.3438 113.4355 50° Northeast  Level Estimated
10:10PM 22.3935 113.4986 50° Northeast  Level Estimated
10:11PM 22.4431 113.5617 50° Northeast  Level Estimated
10:12PM 22.4926 113.6249 50° Northeast  Level Estimated
10:13PM 22.5422 113.6881 50° Northeast  Level Estimated
10:14PM 22.5917 113.7513 50° Northeast  Level Estimated
10:15PM 22.6395 113.8124 50° Northeast  Level Estimated
10:16PM 22.6395 113.8124 North  Level Estimated
10:17PM 22.6395 113.8124 North  Level Estimated
10:18PM 22.6395 113.8124 North  Level Estimated
10:19PM 22.6395 113.8124 North  Level Estimated
10:20PM 22.6395 113.8124 North  Level Estimated
10:21PM 22.6395 113.8124 North  Level Estimated
10:22PM 22.6395 113.8124 North  Level Estimated
10:23PM 22.6395 113.8124 North  Level Estimated
10:24PM 22.6395 113.8124 North  Level Estimated
10:25PM 22.6395 113.8124 North  Level Estimated